sensor_id;sensor_type;location;lat;lon;timestamp;P1;durP1;ratioP1;P2;durP2;ratioP2
34102;SDS011;20381;54.498;18.206;2023-03-31T00:01:50;10.23;;;5.22;;
34102;SDS011;20381;54.498;18.206;2023-03-31T00:04:17;10.08;;;4.37;;
34102;SDS011;20381;54.498;18.206;2023-03-31T00:06:46;11.33;;;5.78;;
34102;SDS011;20381;54.498;18.206;2023-03-31T00:09:13;9.58;;;5.12;;
34102;SDS011;20381;54.498;18.206;2023-03-31T00:11:42;8.08;;;4.83;;
34102;SDS011;20381;54.498;18.206;2023-03-31T00:14:08;8.50;;;4.28;;
34102;SDS011;20381;54.498;18.206;2023-03-31T00:16:35;10.15;;;4.08;;
34102;SDS011;20381;54.498;18.206;2023-03-31T00:19:03;8.95;;;4.17;;
34102;SDS011;20381;54.498;18.206;2023-03-31T00:21:30;9.83;;;4.50;;
34102;SDS011;20381;54.498;18.206;2023-03-31T00:24:02;7.83;;;4.15;;
34102;SDS011;20381;54.498;18.206;2023-03-31T00:26:30;12.10;;;4.80;;
34102;SDS011;20381;54.498;18.206;2023-03-31T00:28:58;8.45;;;4.37;;
34102;SDS011;20381;54.498;18.206;2023-03-31T00:31:25;10.32;;;5.10;;
34102;SDS011;20381;54.498;18.206;2023-03-31T00:33:52;10.13;;;4.87;;
34102;SDS011;20381;54.498;18.206;2023-03-31T00:38:48;11.25;;;4.83;;
34102;SDS011;20381;54.498;18.206;2023-03-31T00:41:16;9.95;;;4.53;;
34102;SDS011;20381;54.498;18.206;2023-03-31T00:44:03;11.00;;;4.67;;
34102;SDS011;20381;54.498;18.206;2023-03-31T00:46:39;11.20;;;5.03;;
34102;SDS011;20381;54.498;18.206;2023-03-31T00:49:09;9.75;;;4.53;;
34102;SDS011;20381;54.498;18.206;2023-03-31T00:51:39;8.48;;;4.20;;
34102;SDS011;20381;54.498;18.206;2023-03-31T00:54:07;9.75;;;4.42;;
34102;SDS011;20381;54.498;18.206;2023-03-31T00:56:35;10.58;;;4.15;;
34102;SDS011;20381;54.498;18.206;2023-03-31T00:59:05;10.38;;;4.17;;
34102;SDS011;20381;54.498;18.206;2023-03-31T01:01:33;8.88;;;4.35;;
34102;SDS011;20381;54.498;18.206;2023-03-31T01:04:03;7.45;;;3.37;;
34102;SDS011;20381;54.498;18.206;2023-03-31T01:06:33;8.88;;;3.98;;
34102;SDS011;20381;54.498;18.206;2023-03-31T01:09:07;11.57;;;4.33;;
34102;SDS011;20381;54.498;18.206;2023-03-31T01:11:34;7.35;;;3.55;;
34102;SDS011;20381;54.498;18.206;2023-03-31T01:14:01;7.45;;;3.33;;
34102;SDS011;20381;54.498;18.206;2023-03-31T01:18:55;6.67;;;3.20;;
34102;SDS011;20381;54.498;18.206;2023-03-31T01:27:00;7.08;;;3.60;;
34102;SDS011;20381;54.498;18.206;2023-03-31T01:32:26;10.55;;;4.45;;
34102;SDS011;20381;54.498;18.206;2023-03-31T01:35:08;8.28;;;3.67;;
34102;SDS011;20381;54.498;18.206;2023-03-31T01:40:27;7.10;;;3.60;;
34102;SDS011;20381;54.498;18.206;2023-03-31T01:45:59;7.80;;;3.60;;
34102;SDS011;20381;54.498;18.206;2023-03-31T01:54:19;9.90;;;3.45;;
34102;SDS011;20381;54.498;18.206;2023-03-31T01:56:48;12.82;;;3.25;;
34102;SDS011;20381;54.498;18.206;2023-03-31T01:59:28;13.30;;;3.27;;
34102;SDS011;20381;54.498;18.206;2023-03-31T02:01:58;9.05;;;3.77;;
34102;SDS011;20381;54.498;18.206;2023-03-31T02:04:33;7.87;;;2.87;;
34102;SDS011;20381;54.498;18.206;2023-03-31T02:07:11;9.63;;;3.15;;
34102;SDS011;20381;54.498;18.206;2023-03-31T02:09:40;6.33;;;3.20;;
34102;SDS011;20381;54.498;18.206;2023-03-31T02:12:09;8.20;;;3.37;;
34102;SDS011;20381;54.498;18.206;2023-03-31T02:14:38;8.95;;;3.20;;
34102;SDS011;20381;54.498;18.206;2023-03-31T02:17:08;6.10;;;3.25;;
34102;SDS011;20381;54.498;18.206;2023-03-31T02:19:39;7.05;;;3.67;;
34102;SDS011;20381;54.498;18.206;2023-03-31T02:22:07;9.03;;;3.12;;
34102;SDS011;20381;54.498;18.206;2023-03-31T02:24:36;8.55;;;3.30;;
34102;SDS011;20381;54.498;18.206;2023-03-31T02:29:53;6.10;;;3.55;;
34102;SDS011;20381;54.498;18.206;2023-03-31T02:34:57;7.83;;;3.60;;
34102;SDS011;20381;54.498;18.206;2023-03-31T02:37:24;9.95;;;3.60;;
34102;SDS011;20381;54.498;18.206;2023-03-31T02:42:20;9.45;;;3.83;;
34102;SDS011;20381;54.498;18.206;2023-03-31T02:44:47;11.63;;;3.45;;
34102;SDS011;20381;54.498;18.206;2023-03-31T02:47:14;6.58;;;3.15;;
34102;SDS011;20381;54.498;18.206;2023-03-31T02:49:44;7.45;;;3.58;;
34102;SDS011;20381;54.498;18.206;2023-03-31T02:58:04;7.62;;;3.52;;
34102;SDS011;20381;54.498;18.206;2023-03-31T03:00:43;9.23;;;3.87;;
34102;SDS011;20381;54.498;18.206;2023-03-31T03:11:50;11.28;;;4.03;;
34102;SDS011;20381;54.498;18.206;2023-03-31T03:16:54;8.58;;;3.20;;
34102;SDS011;20381;54.498;18.206;2023-03-31T03:19:22;8.98;;;3.52;;
34102;SDS011;20381;54.498;18.206;2023-03-31T03:21:49;11.20;;;3.98;;
34102;SDS011;20381;54.498;18.206;2023-03-31T03:24:15;5.35;;;3.42;;
34102;SDS011;20381;54.498;18.206;2023-03-31T03:26:43;5.90;;;3.20;;
34102;SDS011;20381;54.498;18.206;2023-03-31T03:29:11;11.97;;;4.03;;
34102;SDS011;20381;54.498;18.206;2023-03-31T03:31:39;9.50;;;3.80;;
34102;SDS011;20381;54.498;18.206;2023-03-31T03:34:07;6.87;;;3.65;;
34102;SDS011;20381;54.498;18.206;2023-03-31T03:39:02;10.65;;;3.95;;
34102;SDS011;20381;54.498;18.206;2023-03-31T03:41:30;18.55;;;4.28;;
34102;SDS011;20381;54.498;18.206;2023-03-31T03:43:58;10.08;;;3.60;;
34102;SDS011;20381;54.498;18.206;2023-03-31T03:46:25;8.85;;;3.58;;
34102;SDS011;20381;54.498;18.206;2023-03-31T03:48:52;8.55;;;3.37;;
34102;SDS011;20381;54.498;18.206;2023-03-31T03:51:18;6.12;;;3.02;;
34102;SDS011;20381;54.498;18.206;2023-03-31T03:53:44;11.33;;;3.40;;
34102;SDS011;20381;54.498;18.206;2023-03-31T03:56:11;7.30;;;3.87;;
34102;SDS011;20381;54.498;18.206;2023-03-31T03:58:37;10.48;;;3.33;;
34102;SDS011;20381;54.498;18.206;2023-03-31T04:01:03;8.75;;;3.50;;
34102;SDS011;20381;54.498;18.206;2023-03-31T04:03:29;6.90;;;3.05;;
34102;SDS011;20381;54.498;18.206;2023-03-31T04:05:56;10.43;;;3.58;;
34102;SDS011;20381;54.498;18.206;2023-03-31T04:08:22;8.58;;;3.25;;
34102;SDS011;20381;54.498;18.206;2023-03-31T04:10:49;10.78;;;3.58;;
34102;SDS011;20381;54.498;18.206;2023-03-31T04:13:16;9.73;;;3.25;;
34102;SDS011;20381;54.498;18.206;2023-03-31T04:15:43;8.10;;;3.25;;
34102;SDS011;20381;54.498;18.206;2023-03-31T04:18:11;8.45;;;3.27;;
34102;SDS011;20381;54.498;18.206;2023-03-31T04:20:45;8.28;;;3.30;;
34102;SDS011;20381;54.498;18.206;2023-03-31T04:23:13;12.45;;;3.33;;
34102;SDS011;20381;54.498;18.206;2023-03-31T04:25:40;5.93;;;2.60;;
34102;SDS011;20381;54.498;18.206;2023-03-31T04:28:08;9.65;;;3.42;;
34102;SDS011;20381;54.498;18.206;2023-03-31T04:30:35;11.00;;;3.65;;
34102;SDS011;20381;54.498;18.206;2023-03-31T04:33:03;10.15;;;3.25;;
34102;SDS011;20381;54.498;18.206;2023-03-31T04:35:31;7.05;;;2.80;;
34102;SDS011;20381;54.498;18.206;2023-03-31T04:37:59;10.90;;;3.00;;
34102;SDS011;20381;54.498;18.206;2023-03-31T04:42:54;7.65;;;3.02;;
34102;SDS011;20381;54.498;18.206;2023-03-31T04:45:22;7.87;;;3.12;;
34102;SDS011;20381;54.498;18.206;2023-03-31T04:47:48;9.13;;;3.33;;
34102;SDS011;20381;54.498;18.206;2023-03-31T04:50:14;10.25;;;3.25;;
34102;SDS011;20381;54.498;18.206;2023-03-31T04:52:40;9.05;;;3.17;;
34102;SDS011;20381;54.498;18.206;2023-03-31T04:55:07;7.67;;;2.87;;
34102;SDS011;20381;54.498;18.206;2023-03-31T05:00:02;9.88;;;3.20;;
34102;SDS011;20381;54.498;18.206;2023-03-31T05:02:31;10.72;;;2.67;;
34102;SDS011;20381;54.498;18.206;2023-03-31T05:04:58;11.35;;;3.40;;
34102;SDS011;20381;54.498;18.206;2023-03-31T05:07:24;9.78;;;3.55;;
34102;SDS011;20381;54.498;18.206;2023-03-31T05:09:50;11.60;;;4.53;;
34102;SDS011;20381;54.498;18.206;2023-03-31T05:12:17;9.13;;;3.30;;
34102;SDS011;20381;54.498;18.206;2023-03-31T05:14:43;10.38;;;2.85;;
34102;SDS011;20381;54.498;18.206;2023-03-31T05:17:13;8.90;;;3.05;;
34102;SDS011;20381;54.498;18.206;2023-03-31T05:19:42;5.70;;;3.00;;
34102;SDS011;20381;54.498;18.206;2023-03-31T05:22:08;5.10;;;2.65;;
34102;SDS011;20381;54.498;18.206;2023-03-31T05:24:36;8.88;;;3.05;;
34102;SDS011;20381;54.498;18.206;2023-03-31T05:27:05;8.68;;;3.08;;
34102;SDS011;20381;54.498;18.206;2023-03-31T05:29:32;6.85;;;2.90;;
34102;SDS011;20381;54.498;18.206;2023-03-31T05:32:00;6.37;;;2.80;;
34102;SDS011;20381;54.498;18.206;2023-03-31T05:34:27;6.33;;;2.45;;
34102;SDS011;20381;54.498;18.206;2023-03-31T05:36:58;7.33;;;3.15;;
34102;SDS011;20381;54.498;18.206;2023-03-31T05:39:24;7.35;;;3.15;;
34102;SDS011;20381;54.498;18.206;2023-03-31T05:41:51;12.05;;;3.92;;
34102;SDS011;20381;54.498;18.206;2023-03-31T05:44:21;4.78;;;2.80;;
34102;SDS011;20381;54.498;18.206;2023-03-31T05:46:47;6.12;;;3.20;;
34102;SDS011;20381;54.498;18.206;2023-03-31T05:49:13;8.33;;;3.60;;
34102;SDS011;20381;54.498;18.206;2023-03-31T05:51:42;6.28;;;3.10;;
34102;SDS011;20381;54.498;18.206;2023-03-31T05:54:08;6.92;;;3.50;;
34102;SDS011;20381;54.498;18.206;2023-03-31T05:56:35;13.13;;;4.10;;
34102;SDS011;20381;54.498;18.206;2023-03-31T05:59:03;10.00;;;3.60;;
34102;SDS011;20381;54.498;18.206;2023-03-31T06:01:29;10.00;;;3.80;;
34102;SDS011;20381;54.498;18.206;2023-03-31T06:03:56;7.87;;;3.55;;
34102;SDS011;20381;54.498;18.206;2023-03-31T06:06:25;10.03;;;3.52;;
34102;SDS011;20381;54.498;18.206;2023-03-31T06:08:52;6.70;;;3.37;;
34102;SDS011;20381;54.498;18.206;2023-03-31T06:11:21;8.85;;;4.37;;
34102;SDS011;20381;54.498;18.206;2023-03-31T06:13:48;9.08;;;3.90;;
34102;SDS011;20381;54.498;18.206;2023-03-31T06:16:15;7.87;;;3.87;;
34102;SDS011;20381;54.498;18.206;2023-03-31T06:18:42;10.38;;;4.67;;
34102;SDS011;20381;54.498;18.206;2023-03-31T06:21:14;8.73;;;4.05;;
34102;SDS011;20381;54.498;18.206;2023-03-31T06:23:38;11.33;;;4.37;;
34102;SDS011;20381;54.498;18.206;2023-03-31T06:26:08;7.97;;;3.92;;
34102;SDS011;20381;54.498;18.206;2023-03-31T06:28:34;6.97;;;4.20;;
34102;SDS011;20381;54.498;18.206;2023-03-31T06:31:05;10.28;;;4.05;;
34102;SDS011;20381;54.498;18.206;2023-03-31T06:33:38;9.63;;;4.15;;
34102;SDS011;20381;54.498;18.206;2023-03-31T06:36:08;12.37;;;4.28;;
34102;SDS011;20381;54.498;18.206;2023-03-31T06:38:37;10.23;;;4.92;;
34102;SDS011;20381;54.498;18.206;2023-03-31T06:41:06;10.58;;;4.65;;
34102;SDS011;20381;54.498;18.206;2023-03-31T06:43:36;9.03;;;4.05;;
34102;SDS011;20381;54.498;18.206;2023-03-31T06:46:02;8.95;;;4.00;;
34102;SDS011;20381;54.498;18.206;2023-03-31T06:48:30;11.75;;;3.70;;
34102;SDS011;20381;54.498;18.206;2023-03-31T06:51:00;7.45;;;4.05;;
34102;SDS011;20381;54.498;18.206;2023-03-31T06:53:28;8.08;;;4.42;;
34102;SDS011;20381;54.498;18.206;2023-03-31T06:55:55;9.28;;;4.58;;
34102;SDS011;20381;54.498;18.206;2023-03-31T06:58:22;6.95;;;4.08;;
34102;SDS011;20381;54.498;18.206;2023-03-31T07:00:49;7.72;;;4.17;;
34102;SDS011;20381;54.498;18.206;2023-03-31T07:03:20;7.08;;;4.37;;
34102;SDS011;20381;54.498;18.206;2023-03-31T07:05:53;9.23;;;4.50;;
34102;SDS011;20381;54.498;18.206;2023-03-31T07:08:19;6.78;;;4.30;;
34102;SDS011;20381;54.498;18.206;2023-03-31T07:10:46;8.50;;;4.83;;
34102;SDS011;20381;54.498;18.206;2023-03-31T07:13:14;10.72;;;4.67;;
34102;SDS011;20381;54.498;18.206;2023-03-31T07:18:11;8.55;;;4.47;;
34102;SDS011;20381;54.498;18.206;2023-03-31T07:20:39;10.23;;;4.97;;
34102;SDS011;20381;54.498;18.206;2023-03-31T07:23:06;11.27;;;4.57;;
34102;SDS011;20381;54.498;18.206;2023-03-31T07:25:33;11.43;;;5.35;;
34102;SDS011;20381;54.498;18.206;2023-03-31T07:28:01;13.40;;;4.85;;
34102;SDS011;20381;54.498;18.206;2023-03-31T07:30:29;9.88;;;4.80;;
34102;SDS011;20381;54.498;18.206;2023-03-31T07:32:56;12.43;;;5.60;;
34102;SDS011;20381;54.498;18.206;2023-03-31T07:35:22;9.13;;;4.60;;
34102;SDS011;20381;54.498;18.206;2023-03-31T07:37:53;10.95;;;4.53;;
34102;SDS011;20381;54.498;18.206;2023-03-31T07:40:20;9.78;;;3.75;;
34102;SDS011;20381;54.498;18.206;2023-03-31T07:42:53;9.88;;;4.35;;
34102;SDS011;20381;54.498;18.206;2023-03-31T07:45:18;7.42;;;4.05;;
34102;SDS011;20381;54.498;18.206;2023-03-31T07:47:47;9.98;;;3.70;;
34102;SDS011;20381;54.498;18.206;2023-03-31T07:50:13;8.15;;;3.92;;
34102;SDS011;20381;54.498;18.206;2023-03-31T07:52:41;7.37;;;4.08;;
34102;SDS011;20381;54.498;18.206;2023-03-31T07:55:08;7.47;;;3.73;;
34102;SDS011;20381;54.498;18.206;2023-03-31T07:57:35;8.38;;;3.45;;
34102;SDS011;20381;54.498;18.206;2023-03-31T08:00:03;7.20;;;3.92;;
34102;SDS011;20381;54.498;18.206;2023-03-31T08:02:33;4.72;;;3.40;;
34102;SDS011;20381;54.498;18.206;2023-03-31T08:04:59;6.12;;;3.45;;
34102;SDS011;20381;54.498;18.206;2023-03-31T08:07:26;5.58;;;3.30;;
34102;SDS011;20381;54.498;18.206;2023-03-31T08:09:54;9.48;;;3.10;;
34102;SDS011;20381;54.498;18.206;2023-03-31T08:12:21;5.13;;;2.97;;
34102;SDS011;20381;54.498;18.206;2023-03-31T08:14:47;4.40;;;2.70;;
34102;SDS011;20381;54.498;18.206;2023-03-31T08:17:13;4.17;;;2.83;;
34102;SDS011;20381;54.498;18.206;2023-03-31T08:19:40;3.37;;;2.37;;
34102;SDS011;20381;54.498;18.206;2023-03-31T08:22:06;5.95;;;3.02;;
34102;SDS011;20381;54.498;18.206;2023-03-31T08:24:34;4.95;;;2.62;;
34102;SDS011;20381;54.498;18.206;2023-03-31T08:27:00;7.35;;;3.85;;
34102;SDS011;20381;54.498;18.206;2023-03-31T08:29:26;4.70;;;2.50;;
34102;SDS011;20381;54.498;18.206;2023-03-31T08:31:55;9.38;;;3.52;;
34102;SDS011;20381;54.498;18.206;2023-03-31T08:34:22;5.08;;;2.60;;
34102;SDS011;20381;54.498;18.206;2023-03-31T08:36:48;5.25;;;2.87;;
34102;SDS011;20381;54.498;18.206;2023-03-31T08:39:15;7.67;;;3.27;;
34102;SDS011;20381;54.498;18.206;2023-03-31T08:41:44;6.20;;;2.85;;
34102;SDS011;20381;54.498;18.206;2023-03-31T08:44:15;7.55;;;3.20;;
34102;SDS011;20381;54.498;18.206;2023-03-31T08:46:43;6.47;;;3.12;;
34102;SDS011;20381;54.498;18.206;2023-03-31T08:49:13;6.72;;;3.30;;
34102;SDS011;20381;54.498;18.206;2023-03-31T08:51:51;6.95;;;3.60;;
34102;SDS011;20381;54.498;18.206;2023-03-31T08:54:35;5.40;;;3.40;;
34102;SDS011;20381;54.498;18.206;2023-03-31T08:57:11;8.63;;;3.70;;
34102;SDS011;20381;54.498;18.206;2023-03-31T08:59:44;9.15;;;3.85;;
34102;SDS011;20381;54.498;18.206;2023-03-31T09:02:25;6.92;;;3.87;;
34102;SDS011;20381;54.498;18.206;2023-03-31T09:05:13;13.10;;;4.30;;
34102;SDS011;20381;54.498;18.206;2023-03-31T09:07:55;4.25;;;2.62;;
34102;SDS011;20381;54.498;18.206;2023-03-31T09:10:37;3.65;;;2.47;;
34102;SDS011;20381;54.498;18.206;2023-03-31T09:13:17;7.62;;;3.10;;
34102;SDS011;20381;54.498;18.206;2023-03-31T09:18:37;7.85;;;3.17;;
34102;SDS011;20381;54.498;18.206;2023-03-31T09:21:18;5.20;;;2.60;;
34102;SDS011;20381;54.498;18.206;2023-03-31T09:26:32;6.62;;;3.05;;
34102;SDS011;20381;54.498;18.206;2023-03-31T09:29:00;5.28;;;2.80;;
34102;SDS011;20381;54.498;18.206;2023-03-31T09:31:29;8.60;;;3.47;;
34102;SDS011;20381;54.498;18.206;2023-03-31T09:36:24;7.03;;;2.60;;
34102;SDS011;20381;54.498;18.206;2023-03-31T09:38:50;6.12;;;2.50;;
34102;SDS011;20381;54.498;18.206;2023-03-31T09:41:17;7.25;;;2.95;;
34102;SDS011;20381;54.498;18.206;2023-03-31T09:43:45;5.62;;;2.62;;
34102;SDS011;20381;54.498;18.206;2023-03-31T09:46:15;6.30;;;2.58;;
34102;SDS011;20381;54.498;18.206;2023-03-31T09:48:51;8.10;;;3.27;;
34102;SDS011;20381;54.498;18.206;2023-03-31T09:51:21;5.95;;;3.20;;
34102;SDS011;20381;54.498;18.206;2023-03-31T09:53:55;9.08;;;3.58;;
34102;SDS011;20381;54.498;18.206;2023-03-31T09:59:21;7.17;;;3.08;;
34102;SDS011;20381;54.498;18.206;2023-03-31T10:01:51;31.27;;;19.73;;
34102;SDS011;20381;54.498;18.206;2023-03-31T10:04:21;20.68;;;10.88;;
34102;SDS011;20381;54.498;18.206;2023-03-31T10:06:49;10.55;;;4.20;;
34102;SDS011;20381;54.498;18.206;2023-03-31T10:09:18;15.45;;;7.50;;
34102;SDS011;20381;54.498;18.206;2023-03-31T10:11:58;14.43;;;8.88;;
34102;SDS011;20381;54.498;18.206;2023-03-31T10:14:39;10.05;;;4.35;;
34102;SDS011;20381;54.498;18.206;2023-03-31T10:17:01;10.70;;;3.52;;
34102;SDS011;20381;54.498;18.206;2023-03-31T10:19:32;7.45;;;3.45;;
34102;SDS011;20381;54.498;18.206;2023-03-31T10:22:02;8.43;;;2.33;;
34102;SDS011;20381;54.498;18.206;2023-03-31T10:24:43;5.70;;;2.05;;
34102;SDS011;20381;54.498;18.206;2023-03-31T10:27:24;5.47;;;1.95;;
34102;SDS011;20381;54.498;18.206;2023-03-31T10:29:59;3.70;;;1.45;;
34102;SDS011;20381;54.498;18.206;2023-03-31T10:32:29;8.18;;;3.40;;
34102;SDS011;20381;54.498;18.206;2023-03-31T10:34:58;8.38;;;3.12;;
34102;SDS011;20381;54.498;18.206;2023-03-31T10:37:30;7.67;;;2.35;;
34102;SDS011;20381;54.498;18.206;2023-03-31T10:40:01;6.75;;;2.27;;
34102;SDS011;20381;54.498;18.206;2023-03-31T10:42:33;7.37;;;2.70;;
34102;SDS011;20381;54.498;18.206;2023-03-31T10:45:12;6.00;;;2.40;;
34102;SDS011;20381;54.498;18.206;2023-03-31T10:47:44;6.30;;;2.50;;
34102;SDS011;20381;54.498;18.206;2023-03-31T10:50:14;7.97;;;3.33;;
34102;SDS011;20381;54.498;18.206;2023-03-31T10:52:44;8.13;;;3.45;;
34102;SDS011;20381;54.498;18.206;2023-03-31T10:55:15;10.53;;;2.58;;
34102;SDS011;20381;54.498;18.206;2023-03-31T10:57:52;6.72;;;2.72;;
34102;SDS011;20381;54.498;18.206;2023-03-31T11:00:31;7.03;;;3.00;;
34102;SDS011;20381;54.498;18.206;2023-03-31T11:05:58;5.78;;;2.75;;
34102;SDS011;20381;54.498;18.206;2023-03-31T11:13:47;8.00;;;2.83;;
34102;SDS011;20381;54.498;18.206;2023-03-31T11:36:11;8.65;;;2.67;;
34102;SDS011;20381;54.498;18.206;2023-03-31T11:44:12;5.05;;;2.52;;
34102;SDS011;20381;54.498;18.206;2023-03-31T11:46:42;5.08;;;2.40;;
34102;SDS011;20381;54.498;18.206;2023-03-31T11:51:58;5.95;;;2.05;;
34102;SDS011;20381;54.498;18.206;2023-03-31T11:57:01;6.67;;;2.60;;
34102;SDS011;20381;54.498;18.206;2023-03-31T11:59:30;4.47;;;1.65;;
34102;SDS011;20381;54.498;18.206;2023-03-31T12:02:03;11.00;;;6.08;;
34102;SDS011;20381;54.498;18.206;2023-03-31T12:04:34;8.85;;;4.50;;
34102;SDS011;20381;54.498;18.206;2023-03-31T12:07:30;11.53;;;6.15;;
34102;SDS011;20381;54.498;18.206;2023-03-31T12:12:52;5.78;;;2.55;;
34102;SDS011;20381;54.498;18.206;2023-03-31T12:15:39;5.62;;;1.80;;
34102;SDS011;20381;54.498;18.206;2023-03-31T12:20:45;4.35;;;1.72;;
34102;SDS011;20381;54.498;18.206;2023-03-31T12:23:19;3.33;;;1.70;;
34102;SDS011;20381;54.498;18.206;2023-03-31T12:28:35;5.03;;;2.30;;
34102;SDS011;20381;54.498;18.206;2023-03-31T12:31:05;4.75;;;2.05;;
34102;SDS011;20381;54.498;18.206;2023-03-31T12:33:41;7.42;;;2.47;;
34102;SDS011;20381;54.498;18.206;2023-03-31T12:39:17;5.90;;;2.12;;
34102;SDS011;20381;54.498;18.206;2023-03-31T12:42:08;9.48;;;1.95;;
34102;SDS011;20381;54.498;18.206;2023-03-31T12:44:56;6.87;;;2.83;;
34102;SDS011;20381;54.498;18.206;2023-03-31T12:50:13;10.45;;;2.80;;
34102;SDS011;20381;54.498;18.206;2023-03-31T13:01:01;7.80;;;2.45;;
34102;SDS011;20381;54.498;18.206;2023-03-31T13:14:03;3.10;;;1.60;;
34102;SDS011;20381;54.498;18.206;2023-03-31T13:16:40;4.22;;;1.70;;
34102;SDS011;20381;54.498;18.206;2023-03-31T13:19:12;6.75;;;1.90;;
34102;SDS011;20381;54.498;18.206;2023-03-31T13:21:54;3.37;;;1.30;;
34102;SDS011;20381;54.498;18.206;2023-03-31T13:24:23;4.35;;;1.50;;
34102;SDS011;20381;54.498;18.206;2023-03-31T13:26:52;4.03;;;1.57;;
34102;SDS011;20381;54.498;18.206;2023-03-31T13:29:22;5.62;;;2.20;;
34102;SDS011;20381;54.498;18.206;2023-03-31T13:32:13;5.47;;;1.80;;
34102;SDS011;20381;54.498;18.206;2023-03-31T13:34:44;2.90;;;1.52;;
34102;SDS011;20381;54.498;18.206;2023-03-31T13:37:12;3.67;;;1.77;;
34102;SDS011;20381;54.498;18.206;2023-03-31T13:50:33;3.75;;;1.60;;
34102;SDS011;20381;54.498;18.206;2023-03-31T13:58:25;4.22;;;1.92;;
34102;SDS011;20381;54.498;18.206;2023-03-31T14:01:50;4.92;;;2.30;;
34102;SDS011;20381;54.498;18.206;2023-03-31T14:06:18;3.35;;;1.80;;
34102;SDS011;20381;54.498;18.206;2023-03-31T14:08:56;5.37;;;1.77;;
34102;SDS011;20381;54.498;18.206;2023-03-31T14:11:26;3.95;;;2.30;;
34102;SDS011;20381;54.498;18.206;2023-03-31T14:13:57;6.00;;;2.75;;
34102;SDS011;20381;54.498;18.206;2023-03-31T14:16:28;3.62;;;2.00;;
34102;SDS011;20381;54.498;18.206;2023-03-31T14:19:07;5.12;;;2.60;;
34102;SDS011;20381;54.498;18.206;2023-03-31T14:21:47;5.33;;;2.47;;
34102;SDS011;20381;54.498;18.206;2023-03-31T14:29:59;8.30;;;3.87;;
34102;SDS011;20381;54.498;18.206;2023-03-31T14:35:15;6.50;;;2.15;;
34102;SDS011;20381;54.498;18.206;2023-03-31T14:37:54;2.92;;;1.35;;
34102;SDS011;20381;54.498;18.206;2023-03-31T14:40:22;4.80;;;1.47;;
34102;SDS011;20381;54.498;18.206;2023-03-31T14:42:50;5.03;;;1.98;;
34102;SDS011;20381;54.498;18.206;2023-03-31T14:45:21;2.72;;;1.45;;
34102;SDS011;20381;54.498;18.206;2023-03-31T14:47:53;4.25;;;1.60;;
34102;SDS011;20381;54.498;18.206;2023-03-31T14:50:21;3.40;;;1.40;;
34102;SDS011;20381;54.498;18.206;2023-03-31T14:52:50;3.90;;;1.50;;
34102;SDS011;20381;54.498;18.206;2023-03-31T14:55:23;5.03;;;1.40;;
34102;SDS011;20381;54.498;18.206;2023-03-31T14:57:52;4.53;;;1.85;;
34102;SDS011;20381;54.498;18.206;2023-03-31T15:00:24;2.37;;;1.30;;
34102;SDS011;20381;54.498;18.206;2023-03-31T15:02:51;1.75;;;1.25;;
34102;SDS011;20381;54.498;18.206;2023-03-31T15:05:29;2.62;;;1.02;;
34102;SDS011;20381;54.498;18.206;2023-03-31T15:08:01;3.65;;;1.55;;
34102;SDS011;20381;54.498;18.206;2023-03-31T15:10:31;1.55;;;1.07;;
34102;SDS011;20381;54.498;18.206;2023-03-31T15:13:00;2.40;;;1.37;;
34102;SDS011;20381;54.498;18.206;2023-03-31T15:15:31;2.95;;;1.52;;
34102;SDS011;20381;54.498;18.206;2023-03-31T15:17:57;1.90;;;1.40;;
34102;SDS011;20381;54.498;18.206;2023-03-31T15:20:28;2.42;;;1.40;;
34102;SDS011;20381;54.498;18.206;2023-03-31T15:22:59;3.52;;;1.40;;
34102;SDS011;20381;54.498;18.206;2023-03-31T15:25:36;5.12;;;2.00;;
34102;SDS011;20381;54.498;18.206;2023-03-31T15:28:06;3.08;;;1.62;;
34102;SDS011;20381;54.498;18.206;2023-03-31T15:30:38;2.05;;;1.47;;
34102;SDS011;20381;54.498;18.206;2023-03-31T15:33:05;3.62;;;2.00;;
34102;SDS011;20381;54.498;18.206;2023-03-31T15:35:38;4.45;;;2.50;;
34102;SDS011;20381;54.498;18.206;2023-03-31T15:38:11;3.77;;;2.40;;
34102;SDS011;20381;54.498;18.206;2023-03-31T15:40:36;5.28;;;3.10;;
34102;SDS011;20381;54.498;18.206;2023-03-31T15:43:07;4.53;;;2.35;;
34102;SDS011;20381;54.498;18.206;2023-03-31T15:45:45;4.30;;;2.90;;
34102;SDS011;20381;54.498;18.206;2023-03-31T15:48:26;4.28;;;2.40;;
34102;SDS011;20381;54.498;18.206;2023-03-31T15:51:03;4.85;;;3.30;;
34102;SDS011;20381;54.498;18.206;2023-03-31T15:53:34;20.00;;;12.82;;
34102;SDS011;20381;54.498;18.206;2023-03-31T15:56:03;4.10;;;2.67;;
34102;SDS011;20381;54.498;18.206;2023-03-31T16:01:20;4.85;;;3.05;;
34102;SDS011;20381;54.498;18.206;2023-03-31T16:03:51;4.53;;;2.87;;
34102;SDS011;20381;54.498;18.206;2023-03-31T16:09:07;6.35;;;3.20;;
34102;SDS011;20381;54.498;18.206;2023-03-31T16:14:44;7.03;;;3.83;;
34102;SDS011;20381;54.498;18.206;2023-03-31T16:16:53;6.70;;;3.60;;
34102;SDS011;20381;54.498;18.206;2023-03-31T16:19:17;14.30;;;5.50;;
34102;SDS011;20381;54.498;18.206;2023-03-31T16:21:47;7.45;;;4.45;;
34102;SDS011;20381;54.498;18.206;2023-03-31T16:24:26;9.93;;;3.77;;
34102;SDS011;20381;54.498;18.206;2023-03-31T16:26:47;9.38;;;4.70;;
34102;SDS011;20381;54.498;18.206;2023-03-31T16:29:20;5.37;;;3.37;;
34102;SDS011;20381;54.498;18.206;2023-03-31T16:31:47;5.78;;;4.00;;
34102;SDS011;20381;54.498;18.206;2023-03-31T16:34:14;9.03;;;4.75;;
34102;SDS011;20381;54.498;18.206;2023-03-31T16:36:42;6.37;;;3.25;;
34102;SDS011;20381;54.498;18.206;2023-03-31T16:39:08;7.47;;;3.95;;
34102;SDS011;20381;54.498;18.206;2023-03-31T16:41:35;11.22;;;6.75;;
34102;SDS011;20381;54.498;18.206;2023-03-31T16:44:02;13.18;;;7.65;;
34102;SDS011;20381;54.498;18.206;2023-03-31T16:46:31;11.22;;;7.65;;
34102;SDS011;20381;54.498;18.206;2023-03-31T16:48:57;13.50;;;9.13;;
34102;SDS011;20381;54.498;18.206;2023-03-31T16:51:25;13.48;;;8.90;;
34102;SDS011;20381;54.498;18.206;2023-03-31T16:53:52;12.88;;;9.50;;
34102;SDS011;20381;54.498;18.206;2023-03-31T16:56:18;10.43;;;8.93;;
34102;SDS011;20381;54.498;18.206;2023-03-31T16:58:46;12.10;;;8.23;;
34102;SDS011;20381;54.498;18.206;2023-03-31T17:01:13;13.38;;;8.90;;
34102;SDS011;20381;54.498;18.206;2023-03-31T17:03:40;13.97;;;7.70;;
34102;SDS011;20381;54.498;18.206;2023-03-31T17:06:09;12.80;;;7.33;;
34102;SDS011;20381;54.498;18.206;2023-03-31T17:08:37;9.33;;;7.28;;
34102;SDS011;20381;54.498;18.206;2023-03-31T17:11:07;9.18;;;7.65;;
34102;SDS011;20381;54.498;18.206;2023-03-31T17:13:37;12.47;;;7.80;;
34102;SDS011;20381;54.498;18.206;2023-03-31T17:16:07;11.55;;;8.93;;
34102;SDS011;20381;54.498;18.206;2023-03-31T17:18:33;13.32;;;10.05;;
34102;SDS011;20381;54.498;18.206;2023-03-31T17:21:04;18.32;;;11.65;;
34102;SDS011;20381;54.498;18.206;2023-03-31T17:23:32;18.37;;;10.30;;
34102;SDS011;20381;54.498;18.206;2023-03-31T17:26:00;14.47;;;12.10;;
34102;SDS011;20381;54.498;18.206;2023-03-31T17:28:27;20.43;;;12.97;;
34102;SDS011;20381;54.498;18.206;2023-03-31T17:30:54;20.12;;;14.93;;
34102;SDS011;20381;54.498;18.206;2023-03-31T17:33:21;19.50;;;15.33;;
34102;SDS011;20381;54.498;18.206;2023-03-31T17:35:48;18.73;;;14.83;;
34102;SDS011;20381;54.498;18.206;2023-03-31T17:38:15;18.27;;;14.55;;
34102;SDS011;20381;54.498;18.206;2023-03-31T17:40:43;24.37;;;19.87;;
34102;SDS011;20381;54.498;18.206;2023-03-31T17:43:10;23.90;;;17.30;;
34102;SDS011;20381;54.498;18.206;2023-03-31T17:45:36;23.33;;;16.57;;